sensor_id;sensor_type;location;lat;lon;timestamp;P1;durP1;ratioP1;P2;durP2;ratioP2
3757;SDS011;1894;51.038;13.692;2023-02-15T00:00:05;47.03;;;25.20;;
3757;SDS011;1894;51.038;13.692;2023-02-15T00:02:37;48.30;;;24.10;;
3757;SDS011;1894;51.038;13.692;2023-02-15T00:05:04;48.83;;;23.73;;
3757;SDS011;1894;51.038;13.692;2023-02-15T00:07:33;46.00;;;24.23;;
3757;SDS011;1894;51.038;13.692;2023-02-15T00:10:00;54.87;;;26.00;;
3757;SDS011;1894;51.038;13.692;2023-02-15T00:12:27;46.50;;;24.30;;
3757;SDS011;1894;51.038;13.692;2023-02-15T00:14:54;48.73;;;24.37;;
3757;SDS011;1894;51.038;13.692;2023-02-15T00:17:22;45.43;;;23.00;;
3757;SDS011;1894;51.038;13.692;2023-02-15T00:19:49;43.83;;;23.07;;
3757;SDS011;1894;51.038;13.692;2023-02-15T00:22:16;47.93;;;24.67;;
3757;SDS011;1894;51.038;13.692;2023-02-15T00:24:43;52.00;;;24.73;;
3757;SDS011;1894;51.038;13.692;2023-02-15T00:27:10;44.43;;;23.30;;
3757;SDS011;1894;51.038;13.692;2023-02-15T00:29:38;49.83;;;24.27;;
3757;SDS011;1894;51.038;13.692;2023-02-15T00:32:05;46.53;;;23.77;;
3757;SDS011;1894;51.038;13.692;2023-02-15T00:34:32;41.97;;;21.90;;
3757;SDS011;1894;51.038;13.692;2023-02-15T00:36:59;41.63;;;22.40;;
3757;SDS011;1894;51.038;13.692;2023-02-15T00:39:27;45.10;;;22.70;;
3757;SDS011;1894;51.038;13.692;2023-02-15T00:41:55;53.30;;;26.13;;
3757;SDS011;1894;51.038;13.692;2023-02-15T00:44:22;43.17;;;22.03;;
3757;SDS011;1894;51.038;13.692;2023-02-15T00:46:49;49.23;;;24.20;;
3757;SDS011;1894;51.038;13.692;2023-02-15T00:49:16;44.93;;;24.50;;
3757;SDS011;1894;51.038;13.692;2023-02-15T00:51:43;52.17;;;24.17;;
3757;SDS011;1894;51.038;13.692;2023-02-15T00:54:10;49.97;;;21.10;;
3757;SDS011;1894;51.038;13.692;2023-02-15T00:56:38;45.80;;;22.37;;
3757;SDS011;1894;51.038;13.692;2023-02-15T00:59:05;43.23;;;22.20;;
3757;SDS011;1894;51.038;13.692;2023-02-15T01:01:32;49.27;;;23.00;;
3757;SDS011;1894;51.038;13.692;2023-02-15T01:03:59;45.43;;;21.97;;
3757;SDS011;1894;51.038;13.692;2023-02-15T01:06:28;42.20;;;22.43;;
3757;SDS011;1894;51.038;13.692;2023-02-15T01:08:55;49.10;;;21.73;;
3757;SDS011;1894;51.038;13.692;2023-02-15T01:11:22;37.90;;;19.93;;
3757;SDS011;1894;51.038;13.692;2023-02-15T01:13:50;39.90;;;20.97;;
3757;SDS011;1894;51.038;13.692;2023-02-15T01:16:21;43.20;;;20.87;;
3757;SDS011;1894;51.038;13.692;2023-02-15T01:18:50;42.30;;;20.53;;
3757;SDS011;1894;51.038;13.692;2023-02-15T01:21:19;50.70;;;22.27;;
3757;SDS011;1894;51.038;13.692;2023-02-15T01:23:48;44.00;;;22.63;;
3757;SDS011;1894;51.038;13.692;2023-02-15T01:26:16;41.37;;;20.70;;
3757;SDS011;1894;51.038;13.692;2023-02-15T01:28:44;47.40;;;22.03;;
3757;SDS011;1894;51.038;13.692;2023-02-15T01:31:13;49.17;;;21.73;;
3757;SDS011;1894;51.038;13.692;2023-02-15T01:33:44;42.27;;;21.00;;
3757;SDS011;1894;51.038;13.692;2023-02-15T01:36:13;44.50;;;20.93;;
3757;SDS011;1894;51.038;13.692;2023-02-15T01:38:40;43.30;;;21.07;;
3757;SDS011;1894;51.038;13.692;2023-02-15T01:41:08;45.57;;;21.23;;
3757;SDS011;1894;51.038;13.692;2023-02-15T01:43:53;45.27;;;21.83;;
3757;SDS011;1894;51.038;13.692;2023-02-15T01:46:42;42.10;;;20.30;;
3757;SDS011;1894;51.038;13.692;2023-02-15T01:49:15;49.93;;;22.83;;
3757;SDS011;1894;51.038;13.692;2023-02-15T01:51:45;50.20;;;23.07;;
3757;SDS011;1894;51.038;13.692;2023-02-15T01:54:17;48.10;;;22.97;;
3757;SDS011;1894;51.038;13.692;2023-02-15T01:56:52;49.10;;;21.50;;
3757;SDS011;1894;51.038;13.692;2023-02-15T01:59:29;48.53;;;23.40;;
3757;SDS011;1894;51.038;13.692;2023-02-15T02:01:59;46.53;;;20.70;;
3757;SDS011;1894;51.038;13.692;2023-02-15T02:04:35;41.50;;;21.33;;
3757;SDS011;1894;51.038;13.692;2023-02-15T02:07:23;36.57;;;19.97;;
3757;SDS011;1894;51.038;13.692;2023-02-15T02:09:53;43.30;;;21.40;;
3757;SDS011;1894;51.038;13.692;2023-02-15T02:12:22;39.40;;;19.70;;
3757;SDS011;1894;51.038;13.692;2023-02-15T02:14:51;41.17;;;19.53;;
3757;SDS011;1894;51.038;13.692;2023-02-15T02:35:27;36.13;;;17.83;;
3757;SDS011;1894;51.038;13.692;2023-02-15T02:44:01;34.00;;;16.13;;
3757;SDS011;1894;51.038;13.692;2023-02-15T02:46:44;37.07;;;16.17;;
3757;SDS011;1894;51.038;13.692;2023-02-15T02:52:07;33.73;;;18.03;;
3757;SDS011;1894;51.038;13.692;2023-02-15T03:00:38;37.40;;;17.90;;
3757;SDS011;1894;51.038;13.692;2023-02-15T03:03:20;36.93;;;16.60;;
3757;SDS011;1894;51.038;13.692;2023-02-15T03:06:22;29.77;;;14.70;;
3757;SDS011;1894;51.038;13.692;2023-02-15T03:09:10;41.73;;;17.80;;
3757;SDS011;1894;51.038;13.692;2023-02-15T03:11:43;35.90;;;16.70;;
3757;SDS011;1894;51.038;13.692;2023-02-15T03:14:13;33.20;;;16.90;;
3757;SDS011;1894;51.038;13.692;2023-02-15T03:16:43;35.40;;;15.90;;
3757;SDS011;1894;51.038;13.692;2023-02-15T03:19:22;34.93;;;15.17;;
3757;SDS011;1894;51.038;13.692;2023-02-15T03:21:55;35.70;;;17.50;;
3757;SDS011;1894;51.038;13.692;2023-02-15T03:24:36;28.30;;;14.73;;
3757;SDS011;1894;51.038;13.692;2023-02-15T03:27:24;31.90;;;14.90;;
3757;SDS011;1894;51.038;13.692;2023-02-15T03:30:00;35.53;;;15.67;;
3757;SDS011;1894;51.038;13.692;2023-02-15T03:32:30;28.60;;;15.10;;
3757;SDS011;1894;51.038;13.692;2023-02-15T03:34:59;32.83;;;16.30;;
3757;SDS011;1894;51.038;13.692;2023-02-15T03:37:36;26.47;;;16.07;;
3757;SDS011;1894;51.038;13.692;2023-02-15T03:40:32;27.50;;;14.27;;
3757;SDS011;1894;51.038;13.692;2023-02-15T03:46:32;28.57;;;13.43;;
3757;SDS011;1894;51.038;13.692;2023-02-15T03:49:20;36.60;;;15.00;;
3757;SDS011;1894;51.038;13.692;2023-02-15T03:51:57;29.07;;;14.00;;
3757;SDS011;1894;51.038;13.692;2023-02-15T03:54:27;26.73;;;15.50;;
3757;SDS011;1894;51.038;13.692;2023-02-15T03:57:11;27.53;;;13.90;;
3757;SDS011;1894;51.038;13.692;2023-02-15T04:00:13;30.60;;;15.13;;
3757;SDS011;1894;51.038;13.692;2023-02-15T04:05:49;30.30;;;15.03;;
3757;SDS011;1894;51.038;13.692;2023-02-15T04:08:16;27.80;;;14.27;;
3757;SDS011;1894;51.038;13.692;2023-02-15T04:10:43;33.20;;;15.60;;
3757;SDS011;1894;51.038;13.692;2023-02-15T04:13:24;28.27;;;14.50;;
3757;SDS011;1894;51.038;13.692;2023-02-15T04:15:58;31.70;;;15.17;;
3757;SDS011;1894;51.038;13.692;2023-02-15T04:18:33;29.77;;;15.50;;
3757;SDS011;1894;51.038;13.692;2023-02-15T04:21:22;35.50;;;16.60;;
3757;SDS011;1894;51.038;13.692;2023-02-15T04:24:09;32.73;;;15.80;;
3757;SDS011;1894;51.038;13.692;2023-02-15T04:26:56;31.60;;;14.30;;
3757;SDS011;1894;51.038;13.692;2023-02-15T04:29:24;30.17;;;14.30;;
3757;SDS011;1894;51.038;13.692;2023-02-15T04:31:53;33.80;;;14.73;;
3757;SDS011;1894;51.038;13.692;2023-02-15T04:34:22;31.30;;;15.43;;
3757;SDS011;1894;51.038;13.692;2023-02-15T04:36:50;33.73;;;15.63;;
3757;SDS011;1894;51.038;13.692;2023-02-15T04:39:17;36.83;;;15.70;;
3757;SDS011;1894;51.038;13.692;2023-02-15T04:41:45;25.43;;;14.27;;
3757;SDS011;1894;51.038;13.692;2023-02-15T04:44:14;31.03;;;14.40;;
3757;SDS011;1894;51.038;13.692;2023-02-15T04:46:41;38.47;;;15.90;;
3757;SDS011;1894;51.038;13.692;2023-02-15T04:49:09;28.90;;;13.33;;
3757;SDS011;1894;51.038;13.692;2023-02-15T04:51:36;35.13;;;15.13;;
3757;SDS011;1894;51.038;13.692;2023-02-15T04:54:03;30.60;;;14.83;;
3757;SDS011;1894;51.038;13.692;2023-02-15T04:56:30;33.60;;;15.53;;
3757;SDS011;1894;51.038;13.692;2023-02-15T04:58:59;30.53;;;15.50;;
3757;SDS011;1894;51.038;13.692;2023-02-15T05:01:27;41.40;;;16.70;;
3757;SDS011;1894;51.038;13.692;2023-02-15T05:03:54;35.03;;;15.73;;
3757;SDS011;1894;51.038;13.692;2023-02-15T05:06:21;35.50;;;15.67;;
3757;SDS011;1894;51.038;13.692;2023-02-15T05:08:48;37.27;;;16.60;;
3757;SDS011;1894;51.038;13.692;2023-02-15T05:11:16;32.30;;;15.60;;
3757;SDS011;1894;51.038;13.692;2023-02-15T05:13:43;37.67;;;15.67;;
3757;SDS011;1894;51.038;13.692;2023-02-15T05:16:10;30.80;;;14.87;;
3757;SDS011;1894;51.038;13.692;2023-02-15T05:18:37;29.00;;;14.70;;
3757;SDS011;1894;51.038;13.692;2023-02-15T05:21:04;31.63;;;13.20;;
3757;SDS011;1894;51.038;13.692;2023-02-15T05:23:31;36.70;;;15.53;;
3757;SDS011;1894;51.038;13.692;2023-02-15T05:25:59;35.10;;;14.87;;
3757;SDS011;1894;51.038;13.692;2023-02-15T05:28:44;32.80;;;15.37;;
3757;SDS011;1894;51.038;13.692;2023-02-15T05:31:16;37.90;;;14.60;;
3757;SDS011;1894;51.038;13.692;2023-02-15T05:33:45;33.30;;;15.33;;
3757;SDS011;1894;51.038;13.692;2023-02-15T05:36:12;31.17;;;13.60;;
3757;SDS011;1894;51.038;13.692;2023-02-15T05:38:40;33.27;;;14.60;;
3757;SDS011;1894;51.038;13.692;2023-02-15T05:41:07;32.00;;;13.63;;
3757;SDS011;1894;51.038;13.692;2023-02-15T05:43:36;30.70;;;14.37;;
3757;SDS011;1894;51.038;13.692;2023-02-15T05:46:04;32.50;;;14.80;;
3757;SDS011;1894;51.038;13.692;2023-02-15T05:48:33;24.47;;;13.27;;
3757;SDS011;1894;51.038;13.692;2023-02-15T05:51:10;31.93;;;13.43;;
3757;SDS011;1894;51.038;13.692;2023-02-15T05:53:41;28.10;;;13.33;;
3757;SDS011;1894;51.038;13.692;2023-02-15T05:56:09;28.87;;;14.50;;
3757;SDS011;1894;51.038;13.692;2023-02-15T05:58:40;33.17;;;14.63;;
3757;SDS011;1894;51.038;13.692;2023-02-15T06:01:12;30.83;;;16.03;;
3757;SDS011;1894;51.038;13.692;2023-02-15T06:03:43;28.07;;;14.47;;
3757;SDS011;1894;51.038;13.692;2023-02-15T06:06:12;30.70;;;13.70;;
3757;SDS011;1894;51.038;13.692;2023-02-15T06:08:39;37.33;;;16.50;;
3757;SDS011;1894;51.038;13.692;2023-02-15T06:11:07;32.13;;;15.77;;
3757;SDS011;1894;51.038;13.692;2023-02-15T06:13:34;31.57;;;13.57;;
3757;SDS011;1894;51.038;13.692;2023-02-15T06:16:04;34.53;;;14.40;;
3757;SDS011;1894;51.038;13.692;2023-02-15T06:18:33;30.37;;;13.73;;
3757;SDS011;1894;51.038;13.692;2023-02-15T06:21:00;33.50;;;14.00;;
3757;SDS011;1894;51.038;13.692;2023-02-15T06:23:28;31.23;;;14.90;;
3757;SDS011;1894;51.038;13.692;2023-02-15T06:25:55;33.67;;;14.70;;
3757;SDS011;1894;51.038;13.692;2023-02-15T06:28:22;30.23;;;13.77;;
3757;SDS011;1894;51.038;13.692;2023-02-15T06:30:51;28.00;;;13.80;;
3757;SDS011;1894;51.038;13.692;2023-02-15T06:33:19;27.50;;;14.27;;
3757;SDS011;1894;51.038;13.692;2023-02-15T06:35:46;28.10;;;12.97;;
3757;SDS011;1894;51.038;13.692;2023-02-15T06:38:13;29.27;;;14.80;;
3757;SDS011;1894;51.038;13.692;2023-02-15T06:40:41;28.93;;;12.20;;
3757;SDS011;1894;51.038;13.692;2023-02-15T06:43:08;29.30;;;13.97;;
3757;SDS011;1894;51.038;13.692;2023-02-15T06:45:35;29.20;;;13.30;;
3757;SDS011;1894;51.038;13.692;2023-02-15T06:48:02;30.47;;;14.00;;
3757;SDS011;1894;51.038;13.692;2023-02-15T06:50:33;30.07;;;13.90;;
3757;SDS011;1894;51.038;13.692;2023-02-15T06:53:01;26.77;;;13.00;;
3757;SDS011;1894;51.038;13.692;2023-02-15T06:55:28;26.67;;;12.80;;
3757;SDS011;1894;51.038;13.692;2023-02-15T06:57:56;24.37;;;12.97;;
3757;SDS011;1894;51.038;13.692;2023-02-15T07:00:23;34.87;;;14.10;;
3757;SDS011;1894;51.038;13.692;2023-02-15T07:02:57;28.73;;;12.93;;
3757;SDS011;1894;51.038;13.692;2023-02-15T07:05:26;27.17;;;13.07;;
3757;SDS011;1894;51.038;13.692;2023-02-15T07:07:57;25.60;;;14.30;;
3757;SDS011;1894;51.038;13.692;2023-02-15T07:10:26;27.33;;;11.83;;
3757;SDS011;1894;51.038;13.692;2023-02-15T07:12:54;30.53;;;14.23;;
3757;SDS011;1894;51.038;13.692;2023-02-15T07:15:21;26.60;;;13.67;;
3757;SDS011;1894;51.038;13.692;2023-02-15T07:17:49;21.53;;;12.27;;
3757;SDS011;1894;51.038;13.692;2023-02-15T07:20:18;27.00;;;13.57;;
3757;SDS011;1894;51.038;13.692;2023-02-15T07:22:48;26.37;;;13.07;;
3757;SDS011;1894;51.038;13.692;2023-02-15T07:25:16;24.93;;;13.20;;
3757;SDS011;1894;51.038;13.692;2023-02-15T07:27:44;33.17;;;12.67;;
3757;SDS011;1894;51.038;13.692;2023-02-15T07:30:12;25.10;;;11.77;;
3757;SDS011;1894;51.038;13.692;2023-02-15T07:32:43;25.10;;;12.87;;
3757;SDS011;1894;51.038;13.692;2023-02-15T07:35:31;26.43;;;13.30;;
3757;SDS011;1894;51.038;13.692;2023-02-15T07:37:59;25.50;;;12.23;;
3757;SDS011;1894;51.038;13.692;2023-02-15T07:40:27;25.53;;;12.50;;
3757;SDS011;1894;51.038;13.692;2023-02-15T07:42:56;24.27;;;12.43;;
3757;SDS011;1894;51.038;13.692;2023-02-15T07:45:25;22.80;;;11.20;;
3757;SDS011;1894;51.038;13.692;2023-02-15T07:47:53;21.03;;;11.97;;
3757;SDS011;1894;51.038;13.692;2023-02-15T07:50:20;22.13;;;12.53;;
3757;SDS011;1894;51.038;13.692;2023-02-15T07:52:47;19.60;;;10.83;;
3757;SDS011;1894;51.038;13.692;2023-02-15T07:55:14;23.63;;;10.70;;
3757;SDS011;1894;51.038;13.692;2023-02-15T07:57:43;19.93;;;11.00;;
3757;SDS011;1894;51.038;13.692;2023-02-15T08:00:12;19.47;;;11.30;;
3757;SDS011;1894;51.038;13.692;2023-02-15T08:02:41;25.73;;;12.43;;
3757;SDS011;1894;51.038;13.692;2023-02-15T08:05:14;18.80;;;11.17;;
3757;SDS011;1894;51.038;13.692;2023-02-15T08:07:43;22.50;;;12.00;;
3757;SDS011;1894;51.038;13.692;2023-02-15T08:10:10;18.47;;;10.37;;
3757;SDS011;1894;51.038;13.692;2023-02-15T08:12:57;19.87;;;11.13;;
3757;SDS011;1894;51.038;13.692;2023-02-15T08:15:24;19.73;;;10.93;;
3757;SDS011;1894;51.038;13.692;2023-02-15T08:17:51;19.63;;;10.87;;
3757;SDS011;1894;51.038;13.692;2023-02-15T08:20:19;24.63;;;11.57;;
3757;SDS011;1894;51.038;13.692;2023-02-15T08:22:46;17.30;;;10.23;;
3757;SDS011;1894;51.038;13.692;2023-02-15T08:25:13;24.17;;;12.20;;
3757;SDS011;1894;51.038;13.692;2023-02-15T08:27:40;17.50;;;9.90;;
3757;SDS011;1894;51.038;13.692;2023-02-15T08:30:07;16.43;;;9.30;;
3757;SDS011;1894;51.038;13.692;2023-02-15T08:32:35;19.63;;;10.77;;
3757;SDS011;1894;51.038;13.692;2023-02-15T08:35:03;18.17;;;10.30;;
3757;SDS011;1894;51.038;13.692;2023-02-15T08:37:31;16.80;;;10.13;;
3757;SDS011;1894;51.038;13.692;2023-02-15T08:39:58;17.10;;;9.00;;
3757;SDS011;1894;51.038;13.692;2023-02-15T08:42:25;16.70;;;10.30;;
3757;SDS011;1894;51.038;13.692;2023-02-15T08:44:52;19.67;;;10.53;;
3757;SDS011;1894;51.038;13.692;2023-02-15T08:47:20;16.00;;;9.80;;
3757;SDS011;1894;51.038;13.692;2023-02-15T08:49:47;17.83;;;10.77;;
3757;SDS011;1894;51.038;13.692;2023-02-15T08:52:14;17.50;;;10.30;;
3757;SDS011;1894;51.038;13.692;2023-02-15T08:54:41;17.50;;;10.90;;
3757;SDS011;1894;51.038;13.692;2023-02-15T08:57:08;15.33;;;9.43;;
3757;SDS011;1894;51.038;13.692;2023-02-15T08:59:36;14.43;;;9.20;;
3757;SDS011;1894;51.038;13.692;2023-02-15T09:02:03;18.67;;;10.80;;
3757;SDS011;1894;51.038;13.692;2023-02-15T09:04:31;20.53;;;10.60;;
3757;SDS011;1894;51.038;13.692;2023-02-15T09:06:59;15.80;;;9.40;;
3757;SDS011;1894;51.038;13.692;2023-02-15T09:09:26;16.40;;;9.80;;
3757;SDS011;1894;51.038;13.692;2023-02-15T09:11:53;15.37;;;8.77;;
3757;SDS011;1894;51.038;13.692;2023-02-15T09:14:25;17.10;;;9.00;;
3757;SDS011;1894;51.038;13.692;2023-02-15T09:16:53;17.17;;;9.27;;
3757;SDS011;1894;51.038;13.692;2023-02-15T09:19:21;16.27;;;9.50;;
3757;SDS011;1894;51.038;13.692;2023-02-15T09:21:49;16.27;;;9.33;;
3757;SDS011;1894;51.038;13.692;2023-02-15T09:24:17;18.83;;;10.00;;
3757;SDS011;1894;51.038;13.692;2023-02-15T09:26:45;16.57;;;8.87;;
3757;SDS011;1894;51.038;13.692;2023-02-15T09:29:14;15.67;;;9.67;;
3757;SDS011;1894;51.038;13.692;2023-02-15T09:31:44;22.90;;;10.93;;
3757;SDS011;1894;51.038;13.692;2023-02-15T09:34:14;15.23;;;8.90;;
3757;SDS011;1894;51.038;13.692;2023-02-15T09:36:44;13.60;;;8.60;;
3757;SDS011;1894;51.038;13.692;2023-02-15T09:39:23;20.00;;;10.00;;
3757;SDS011;1894;51.038;13.692;2023-02-15T09:51:19;15.67;;;9.70;;
3757;SDS011;1894;51.038;13.692;2023-02-15T09:56:55;17.23;;;9.10;;
3757;SDS011;1894;51.038;13.692;2023-02-15T09:59:34;17.03;;;9.70;;
3757;SDS011;1894;51.038;13.692;2023-02-15T10:10:41;18.60;;;10.70;;
3757;SDS011;1894;51.038;13.692;2023-02-15T10:18:45;22.57;;;11.00;;
3757;SDS011;1894;51.038;13.692;2023-02-15T10:24:42;17.43;;;11.10;;
3757;SDS011;1894;51.038;13.692;2023-02-15T10:27:32;18.50;;;11.73;;
3757;SDS011;1894;51.038;13.692;2023-02-15T10:30:12;18.97;;;11.37;;
3757;SDS011;1894;51.038;13.692;2023-02-15T10:36:11;20.23;;;11.63;;
3757;SDS011;1894;51.038;13.692;2023-02-15T10:39:02;20.67;;;11.50;;
3757;SDS011;1894;51.038;13.692;2023-02-15T10:42:03;19.73;;;11.37;;
3757;SDS011;1894;51.038;13.692;2023-02-15T10:56:14;25.90;;;11.90;;
3757;SDS011;1894;51.038;13.692;2023-02-15T11:01:40;22.23;;;12.50;;
3757;SDS011;1894;51.038;13.692;2023-02-15T11:07:18;23.50;;;12.50;;
3757;SDS011;1894;51.038;13.692;2023-02-15T11:09:54;22.70;;;12.93;;
3757;SDS011;1894;51.038;13.692;2023-02-15T11:12:32;21.33;;;12.10;;
3757;SDS011;1894;51.038;13.692;2023-02-15T11:15:02;19.20;;;10.80;;
3757;SDS011;1894;51.038;13.692;2023-02-15T11:23:42;30.00;;;12.20;;
3757;SDS011;1894;51.038;13.692;2023-02-15T11:26:12;22.37;;;11.43;;
3757;SDS011;1894;51.038;13.692;2023-02-15T11:29:12;21.23;;;12.80;;
3757;SDS011;1894;51.038;13.692;2023-02-15T11:31:54;17.07;;;10.23;;
3757;SDS011;1894;51.038;13.692;2023-02-15T11:37:07;17.43;;;11.23;;
3757;SDS011;1894;51.038;13.692;2023-02-15T11:39:51;18.07;;;11.53;;
3757;SDS011;1894;51.038;13.692;2023-02-15T11:42:22;16.03;;;10.20;;
3757;SDS011;1894;51.038;13.692;2023-02-15T11:47:31;15.43;;;11.30;;
3757;SDS011;1894;51.038;13.692;2023-02-15T11:49:59;22.37;;;12.47;;
3757;SDS011;1894;51.038;13.692;2023-02-15T11:52:26;16.73;;;11.30;;
3757;SDS011;1894;51.038;13.692;2023-02-15T11:54:53;15.20;;;11.03;;
3757;SDS011;1894;51.038;13.692;2023-02-15T12:03:09;22.70;;;12.43;;
3757;SDS011;1894;51.038;13.692;2023-02-15T12:05:49;16.40;;;11.20;;
3757;SDS011;1894;51.038;13.692;2023-02-15T12:08:26;17.70;;;11.70;;
3757;SDS011;1894;51.038;13.692;2023-02-15T12:11:15;15.63;;;10.60;;
3757;SDS011;1894;51.038;13.692;2023-02-15T12:13:55;17.00;;;11.70;;
3757;SDS011;1894;51.038;13.692;2023-02-15T12:16:28;16.77;;;12.00;;
3757;SDS011;1894;51.038;13.692;2023-02-15T12:21:58;15.77;;;12.13;;
3757;SDS011;1894;51.038;13.692;2023-02-15T12:24:33;22.13;;;12.20;;
3757;SDS011;1894;51.038;13.692;2023-02-15T12:27:16;23.60;;;13.00;;
3757;SDS011;1894;51.038;13.692;2023-02-15T12:29:49;13.90;;;11.47;;
3757;SDS011;1894;51.038;13.692;2023-02-15T12:32:36;14.23;;;11.73;;
3757;SDS011;1894;51.038;13.692;2023-02-15T12:35:41;14.47;;;11.30;;
3757;SDS011;1894;51.038;13.692;2023-02-15T12:38:26;15.80;;;12.80;;
3757;SDS011;1894;51.038;13.692;2023-02-15T12:40:58;18.00;;;12.03;;
3757;SDS011;1894;51.038;13.692;2023-02-15T12:43:33;16.93;;;11.30;;
3757;SDS011;1894;51.038;13.692;2023-02-15T12:51:56;15.20;;;12.90;;
3757;SDS011;1894;51.038;13.692;2023-02-15T12:59:53;16.70;;;14.57;;
3757;SDS011;1894;51.038;13.692;2023-02-15T13:05:40;16.83;;;13.43;;
3757;SDS011;1894;51.038;13.692;2023-02-15T13:08:16;16.33;;;13.57;;
3757;SDS011;1894;51.038;13.692;2023-02-15T13:13:24;16.53;;;13.77;;
3757;SDS011;1894;51.038;13.692;2023-02-15T13:15:57;16.00;;;13.30;;
3757;SDS011;1894;51.038;13.692;2023-02-15T13:18:39;15.30;;;13.23;;
3757;SDS011;1894;51.038;13.692;2023-02-15T13:21:18;17.23;;;13.87;;
3757;SDS011;1894;51.038;13.692;2023-02-15T13:26:32;15.17;;;12.90;;
3757;SDS011;1894;51.038;13.692;2023-02-15T13:29:06;17.70;;;14.30;;
3757;SDS011;1894;51.038;13.692;2023-02-15T13:31:54;15.60;;;12.87;;
3757;SDS011;1894;51.038;13.692;2023-02-15T13:34:28;18.70;;;12.77;;
3757;SDS011;1894;51.038;13.692;2023-02-15T13:40:08;14.40;;;12.67;;
3757;SDS011;1894;51.038;13.692;2023-02-15T13:48:39;14.70;;;13.10;;
3757;SDS011;1894;51.038;13.692;2023-02-15T13:51:30;16.57;;;13.40;;
3757;SDS011;1894;51.038;13.692;2023-02-15T13:59:55;15.80;;;13.57;;
3757;SDS011;1894;51.038;13.692;2023-02-15T14:17:07;16.33;;;13.43;;
3757;SDS011;1894;51.038;13.692;2023-02-15T14:32:40;16.27;;;14.20;;
3757;SDS011;1894;51.038;13.692;2023-02-15T14:35:13;16.47;;;14.40;;
3757;SDS011;1894;51.038;13.692;2023-02-15T14:37:55;19.40;;;16.10;;
3757;SDS011;1894;51.038;13.692;2023-02-15T14:49:33;19.30;;;16.00;;
3757;SDS011;1894;51.038;13.692;2023-02-15T14:52:08;20.87;;;17.03;;
3757;SDS011;1894;51.038;13.692;2023-02-15T15:05:24;23.07;;;19.13;;
3757;SDS011;1894;51.038;13.692;2023-02-15T15:08:01;32.00;;;20.27;;
3757;SDS011;1894;51.038;13.692;2023-02-15T15:10:45;25.60;;;19.90;;
3757;SDS011;1894;51.038;13.692;2023-02-15T15:18:56;30.57;;;19.77;;
3757;SDS011;1894;51.038;13.692;2023-02-15T15:50:30;34.10;;;19.10;;
3757;SDS011;1894;51.038;13.692;2023-02-15T15:52:58;39.30;;;20.77;;
3757;SDS011;1894;51.038;13.692;2023-02-15T15:55:29;32.47;;;18.53;;
3757;SDS011;1894;51.038;13.692;2023-02-15T15:58:02;39.93;;;21.97;;
3757;SDS011;1894;51.038;13.692;2023-02-15T16:03:23;36.30;;;19.47;;
3757;SDS011;1894;51.038;13.692;2023-02-15T16:05:53;43.43;;;21.27;;
3757;SDS011;1894;51.038;13.692;2023-02-15T16:08:56;35.13;;;19.60;;
3757;SDS011;1894;51.038;13.692;2023-02-15T16:11:19;36.17;;;18.80;;
3757;SDS011;1894;51.038;13.692;2023-02-15T16:13:51;41.70;;;21.40;;
3757;SDS011;1894;51.038;13.692;2023-02-15T16:16:23;40.73;;;20.83;;
3757;SDS011;1894;51.038;13.692;2023-02-15T16:18:55;43.03;;;21.87;;
3757;SDS011;1894;51.038;13.692;2023-02-15T16:21:34;42.40;;;21.50;;
3757;SDS011;1894;51.038;13.692;2023-02-15T16:29:41;34.50;;;18.43;;
3757;SDS011;1894;51.038;13.692;2023-02-15T16:32:29;37.57;;;19.17;;
3757;SDS011;1894;51.038;13.692;2023-02-15T16:34:57;36.23;;;18.33;;
3757;SDS011;1894;51.038;13.692;2023-02-15T16:37:32;36.80;;;19.97;;
3757;SDS011;1894;51.038;13.692;2023-02-15T16:40:00;50.17;;;24.47;;
3757;SDS011;1894;51.038;13.692;2023-02-15T16:42:28;37.63;;;19.37;;
3757;SDS011;1894;51.038;13.692;2023-02-15T16:44:57;39.47;;;20.27;;
3757;SDS011;1894;51.038;13.692;2023-02-15T16:47:35;33.33;;;17.77;;
3757;SDS011;1894;51.038;13.692;2023-02-15T16:50:10;36.73;;;19.70;;
3757;SDS011;1894;51.038;13.692;2023-02-15T16:53:01;34.30;;;18.70;;
3757;SDS011;1894;51.038;13.692;2023-02-15T16:55:38;40.13;;;20.20;;
3757;SDS011;1894;51.038;13.692;2023-02-15T16:58:12;39.13;;;19.60;;
3757;SDS011;1894;51.038;13.692;2023-02-15T17:00:43;34.73;;;17.67;;
3757;SDS011;1894;51.038;13.692;2023-02-15T17:05:48;34.47;;;18.23;;
3757;SDS011;1894;51.038;13.692;2023-02-15T17:08:41;32.30;;;18.13;;
3757;SDS011;1894;51.038;13.692;2023-02-15T17:11:11;30.80;;;17.33;;
3757;SDS011;1894;51.038;13.692;2023-02-15T17:14:10;37.03;;;19.40;;
3757;SDS011;1894;51.038;13.692;2023-02-15T17:16:42;47.13;;;18.80;;
3757;SDS011;1894;51.038;13.692;2023-02-15T17:19:32;34.30;;;19.03;;
3757;SDS011;1894;51.038;13.692;2023-02-15T17:22:14;37.27;;;17.83;;
3757;SDS011;1894;51.038;13.692;2023-02-15T17:24:47;34.70;;;17.90;;
3757;SDS011;1894;51.038;13.692;2023-02-15T17:27:18;36.60;;;19.67;;
3757;SDS011;1894;51.038;13.692;2023-02-15T17:30:03;32.33;;;18.47;;
3757;SDS011;1894;51.038;13.692;2023-02-15T17:32:55;38.50;;;19.63;;
3757;SDS011;1894;51.038;13.692;2023-02-15T17:35:30;35.47;;;17.23;;
3757;SDS011;1894;51.038;13.692;2023-02-15T17:40:35;32.17;;;19.30;;
3757;SDS011;1894;51.038;13.692;2023-02-15T17:43:02;38.63;;;19.37;;
3757;SDS011;1894;51.038;13.692;2023-02-15T17:45:31;36.20;;;17.43;;
3757;SDS011;1894;51.038;13.692;2023-02-15T17:50:49;36.03;;;19.67;;
3757;SDS011;1894;51.038;13.692;2023-02-15T17:53:17;33.27;;;18.33;;
3757;SDS011;1894;51.038;13.692;2023-02-15T17:55:45;38.53;;;19.60;;
3757;SDS011;1894;51.038;13.692;2023-02-15T17:58:13;35.17;;;17.80;;
3757;SDS011;1894;51.038;13.692;2023-02-15T18:00:46;35.33;;;19.47;;
3757;SDS011;1894;51.038;13.692;2023-02-15T18:03:43;34.03;;;19.60;;
3757;SDS011;1894;51.038;13.692;2023-02-15T18:06:32;43.80;;;21.07;;
3757;SDS011;1894;51.038;13.692;2023-02-15T18:09:21;36.53;;;19.30;;
3757;SDS011;1894;51.038;13.692;2023-02-15T18:12:17;37.93;;;18.80;;
3757;SDS011;1894;51.038;13.692;2023-02-15T18:14:53;37.40;;;19.47;;
3757;SDS011;1894;51.038;13.692;2023-02-15T18:17:44;44.83;;;21.57;;
3757;SDS011;1894;51.038;13.692;2023-02-15T18:20:17;40.40;;;18.33;;
3757;SDS011;1894;51.038;13.692;2023-02-15T18:22:50;39.20;;;20.30;;
3757;SDS011;1894;51.038;13.692;2023-02-15T18:25:18;44.50;;;20.23;;
3757;SDS011;1894;51.038;13.692;2023-02-15T18:27:48;40.10;;;20.03;;
3757;SDS011;1894;51.038;13.692;2023-02-15T18:30:19;38.73;;;19.60;;
3757;SDS011;1894;51.038;13.692;2023-02-15T18:32:50;43.20;;;20.20;;
3757;SDS011;1894;51.038;13.692;2023-02-15T18:35:20;38.40;;;20.73;;
3757;SDS011;1894;51.038;13.692;2023-02-15T18:37:51;44.10;;;21.13;;
3757;SDS011;1894;51.038;13.692;2023-02-15T18:40:20;39.27;;;20.50;;
3757;SDS011;1894;51.038;13.692;2023-02-15T18:42:51;40.57;;;20.20;;
3757;SDS011;1894;51.038;13.692;2023-02-15T18:47:54;39.43;;;20.67;;
3757;SDS011;1894;51.038;13.692;2023-02-15T18:50:21;37.87;;;20.17;;
3757;SDS011;1894;51.038;13.692;2023-02-15T18:52:51;42.03;;;19.00;;
3757;SDS011;1894;51.038;13.692;2023-02-15T18:55:20;40.30;;;19.47;;
3757;SDS011;1894;51.038;13.692;2023-02-15T18:57:51;39.10;;;18.87;;
3757;SDS011;1894;51.038;13.692;2023-02-15T19:00:22;41.20;;;19.83;;
3757;SDS011;1894;51.038;13.692;2023-02-15T19:02:55;40.03;;;21.53;;
3757;SDS011;1894;51.038;13.692;2023-02-15T19:05:23;39.60;;;20.03;;
3757;SDS011;1894;51.038;13.692;2023-02-15T19:07:56;42.50;;;20.70;;
3757;SDS011;1894;51.038;13.692;2023-02-15T19:10:26;42.93;;;19.77;;
3757;SDS011;1894;51.038;13.692;2023-02-15T19:12:56;39.40;;;21.13;;